createdAt,value
2022-07-29T09:04:22.185Z,27.57
2022-07-29T09:05:29.606Z,27.48
2022-07-29T09:06:20.834Z,27.40
2022-07-29T09:07:20.038Z,27.32
2022-07-29T09:08:23.850Z,27.25
2022-07-29T09:12:52.046Z,26.31
2022-07-29T09:13:51.909Z,26.29
2022-07-29T09:14:52.737Z,26.29
2022-07-29T09:15:53.373Z,26.30
2022-07-29T09:17:01.060Z,26.30
2022-07-29T09:17:53.541Z,26.31
2022-07-29T09:18:54.374Z,26.33
2022-07-29T09:19:56.356Z,26.34
2022-07-29T09:20:56.012Z,26.35
2022-07-29T09:21:57.653Z,26.37
2022-07-29T09:22:58.257Z,26.39
2022-07-29T09:23:58.026Z,26.41
2022-07-29T09:24:59.839Z,26.42
2022-07-29T09:25:15.678Z,26.78
2022-07-29T09:26:16.042Z,26.75
2022-07-29T09:27:16.739Z,26.76
2022-07-29T09:28:16.927Z,26.79
2022-07-29T09:29:18.771Z,26.82
2022-07-29T09:30:25.469Z,26.86
2022-07-29T09:31:18.915Z,26.90
2022-07-29T09:32:19.943Z,26.91
2022-07-29T09:33:19.947Z,26.92
2022-07-29T09:34:20.206Z,26.91
2022-07-29T09:35:21.377Z,26.90
2022-07-29T09:36:21.453Z,26.90
2022-07-29T09:37:21.253Z,26.88
2022-07-29T09:38:22.668Z,26.85
2022-07-29T09:39:23.068Z,26.83
2022-07-29T09:40:23.563Z,26.83
2022-07-29T09:41:24.005Z,26.82
2022-07-29T09:42:24.548Z,26.83
2022-07-29T09:43:25.422Z,26.83
2022-07-29T09:43:36.795Z,26.95
2022-07-29T09:44:34.939Z,26.95
2022-07-29T09:45:36.212Z,26.94
2022-07-29T09:46:35.455Z,26.94
2022-07-29T09:47:35.856Z,26.94
2022-07-29T09:48:36.884Z,26.95
2022-07-29T09:49:36.970Z,26.97
2022-07-29T09:50:37.358Z,26.98
2022-07-29T09:51:38.817Z,27.01
2022-07-29T09:52:38.976Z,27.03
2022-07-29T09:53:38.434Z,27.06
2022-07-29T09:54:38.417Z,27.11
2022-07-29T09:55:39.892Z,27.18
2022-07-29T09:56:40.835Z,27.24
2022-07-29T09:57:41.795Z,27.31
2022-07-29T09:58:42.594Z,27.36
2022-07-29T09:59:50.355Z,27.43
2022-07-29T10:00:42.832Z,27.51
2022-07-29T10:01:43.417Z,27.56
2022-07-29T10:02:44.957Z,27.54
2022-07-29T10:03:44.056Z,27.55
2022-07-29T10:04:44.780Z,27.59
2022-07-29T10:04:57.381Z,28.45
2022-07-29T10:05:59.097Z,28.44
2022-07-29T10:07:04.353Z,28.44
2022-07-29T10:07:58.975Z,28.42
2022-07-29T10:09:02.333Z,28.41
2022-07-29T10:10:06.111Z,28.40
2022-07-29T10:11:03.608Z,28.40
2022-07-29T10:12:00.976Z,28.40
2022-07-29T10:13:06.338Z,28.40
2022-07-29T10:14:01.738Z,28.40
2022-07-29T10:15:03.710Z,28.41
2022-07-29T10:16:03.712Z,28.42
2022-07-29T10:17:04.027Z,28.43
2022-07-29T10:18:04.085Z,28.45
2022-07-29T10:19:05.334Z,28.46
2022-07-29T10:20:05.086Z,28.47
2022-07-29T10:21:06.291Z,28.47
2022-07-29T10:22:06.280Z,28.47
2022-07-29T10:23:06.315Z,28.48
2022-07-29T10:24:07.132Z,28.49
2022-07-29T10:25:07.922Z,28.49
2022-07-29T10:25:16.781Z,28.54
2022-07-29T10:26:17.648Z,28.55
2022-07-29T10:27:17.982Z,28.55
2022-07-29T10:28:19.059Z,28.56
2022-07-29T10:29:19.161Z,28.56
2022-07-29T10:30:18.692Z,28.54
2022-07-29T10:31:21.050Z,28.54
2022-07-29T10:32:19.651Z,28.54
2022-07-29T10:33:20.939Z,28.53
2022-07-29T10:34:24.151Z,28.55
2022-07-29T10:35:21.005Z,28.56
2022-07-29T10:36:22.253Z,28.57
2022-07-29T10:37:22.108Z,28.59
2022-07-29T10:38:27.319Z,28.56
2022-07-29T10:39:23.405Z,28.55
2022-07-29T10:40:23.322Z,28.52
2022-07-29T10:41:23.666Z,28.50
2022-07-29T10:42:33.961Z,28.48
2022-07-29T10:43:25.343Z,28.48
2022-07-29T10:44:26.321Z,28.49
2022-07-29T10:45:29.946Z,28.51
2022-07-29T10:46:30.810Z,28.50
2022-07-29T10:47:28.315Z,28.48
2022-07-29T10:48:28.440Z,28.46
2022-07-29T10:48:37.683Z,28.49
2022-07-29T10:49:37.483Z,28.50
2022-07-29T10:50:37.990Z,28.51
2022-07-29T10:51:38.148Z,28.53
2022-07-29T10:52:38.966Z,28.55
2022-07-29T10:53:39.386Z,28.56
2022-07-29T10:54:42.498Z,28.58
2022-07-29T10:55:43.170Z,28.59
2022-07-29T10:56:40.880Z,28.60
2022-07-29T10:57:54.178Z,28.62
2022-07-29T10:58:42.462Z,28.58
2022-07-29T10:59:43.103Z,28.52
2022-07-29T11:00:45.609Z,28.47
2022-07-29T11:01:49.342Z,28.43
2022-07-29T11:02:45.768Z,28.42
2022-07-29T11:03:49.227Z,28.43
2022-07-29T11:04:47.278Z,28.44
2022-07-29T11:05:47.723Z,28.46
2022-07-29T11:06:47.977Z,28.48
2022-07-29T11:07:49.761Z,28.51
2022-07-29T11:07:59.358Z,28.80
2022-07-29T11:08:59.430Z,28.79
2022-07-29T11:10:00.633Z,28.79
2022-07-29T11:11:01.313Z,28.78
2022-07-29T11:12:01.030Z,28.75
2022-07-29T11:13:01.757Z,28.67
2022-07-29T11:14:01.930Z,28.63
2022-07-29T11:15:02.661Z,28.61
2022-07-29T11:16:03.134Z,28.58
2022-07-29T11:17:05.926Z,28.59
2022-07-29T11:18:04.201Z,28.61
2022-07-29T11:19:05.302Z,28.64
2022-07-29T11:20:04.520Z,28.68
2022-07-29T11:21:05.998Z,28.71
2022-07-29T11:22:07.583Z,28.75
2022-07-29T11:23:05.664Z,28.78
2022-07-29T11:24:06.084Z,28.81
2022-07-29T11:25:06.999Z,28.84
2022-07-29T11:26:07.879Z,28.87
2022-07-29T11:28:23.020Z,28.94
2022-07-29T11:29:18.001Z,28.91
2022-07-29T11:30:18.245Z,28.87
2022-07-29T11:31:18.521Z,28.84
2022-07-29T11:32:22.842Z,28.81
2022-07-29T11:33:19.699Z,28.78
2022-07-29T11:34:20.767Z,28.76
2022-07-29T11:35:36.919Z,28.73
2022-07-29T11:36:28.183Z,28.70
2022-07-29T11:37:27.608Z,28.66
2022-07-29T11:38:23.115Z,28.63
2022-07-29T11:39:23.909Z,28.59
2022-07-29T11:40:24.600Z,28.56
2022-07-29T11:41:25.119Z,28.53
2022-07-29T11:42:28.360Z,28.51
2022-07-29T11:43:25.864Z,28.48
2022-07-29T11:44:26.017Z,28.46
2022-07-29T11:45:44.361Z,28.45
2022-07-29T11:46:26.923Z,28.45
2022-07-29T11:47:27.541Z,28.47
2022-07-29T11:48:32.167Z,28.50
2022-07-29T11:49:31.580Z,28.55
2022-07-29T11:50:29.602Z,28.60
2022-07-29T11:51:32.681Z,28.66
2022-07-29T11:52:30.598Z,28.69
2022-07-29T11:53:32.865Z,28.73
2022-07-29T11:54:31.543Z,28.75
2022-07-29T11:55:32.330Z,28.78
2022-07-29T11:55:51.416Z,29.19
2022-07-29T11:56:41.057Z,29.18
2022-07-29T11:57:42.803Z,29.17
2022-07-29T11:58:42.647Z,29.17
2022-07-29T11:59:44.992Z,29.13
2022-07-29T12:00:44.439Z,29.10
2022-07-29T12:01:44.257Z,29.08
2022-07-29T12:02:48.631Z,29.04
2022-07-29T12:03:45.389Z,29.00
2022-07-29T12:04:46.073Z,28.97
2022-07-29T12:05:48.583Z,28.94
2022-07-29T12:06:48.816Z,28.91
2022-07-29T12:07:01.386Z,28.94
2022-07-29T12:07:47.637Z,28.88
2022-07-29T12:08:49.538Z,28.86
2022-07-29T12:09:50.481Z,28.81
2022-07-29T12:10:51.011Z,28.78
2022-07-29T12:11:50.366Z,28.73
2022-07-29T12:12:52.206Z,28.69
2022-07-29T12:13:51.331Z,28.66
2022-07-29T12:14:53.288Z,28.63
2022-07-29T12:15:54.111Z,28.60
2022-07-29T12:16:53.841Z,28.57
2022-07-29T12:17:54.288Z,28.54
2022-07-29T12:18:04.085Z,28.11
2022-07-29T12:19:04.299Z,28.10
2022-07-29T12:20:06.206Z,28.11
2022-07-29T12:21:05.858Z,28.13
2022-07-29T12:22:09.962Z,28.15
2022-07-29T12:24:09.342Z,28.57
2022-07-29T12:25:31.981Z,28.56
2022-07-29T12:26:02.576Z,28.57
2022-07-29T12:27:05.651Z,28.57
2022-07-29T12:28:09.418Z,28.58
2022-07-29T12:29:04.076Z,28.58
2022-07-29T12:30:08.776Z,28.60
2022-07-29T12:31:08.507Z,28.62
2022-07-29T12:32:19.337Z,28.65
2022-07-29T12:33:07.316Z,28.69
2022-07-29T12:34:07.170Z,28.76
2022-07-29T12:35:10.656Z,28.82
2022-07-29T12:36:17.141Z,28.88
2022-07-29T12:37:08.290Z,28.95
2022-07-29T12:38:08.510Z,29.00
2022-07-29T12:39:11.374Z,29.05
2022-07-29T12:40:10.198Z,29.10
2022-07-29T12:41:11.806Z,29.14
2022-07-29T12:42:14.869Z,29.18
2022-07-29T12:43:11.568Z,29.23
2022-07-29T12:44:11.945Z,29.28
2022-07-29T12:45:13.219Z,29.33
2022-07-29T12:46:13.100Z,29.37
2022-07-29T12:47:13.659Z,29.41
2022-07-29T12:47:23.753Z,30.00
2022-07-29T12:48:24.805Z,29.97
2022-07-29T12:49:25.503Z,29.97
2022-07-29T12:50:26.386Z,29.96
2022-07-29T12:51:24.834Z,29.95
2022-07-29T12:52:25.108Z,29.95
2022-07-29T12:53:28.836Z,29.95
2022-07-29T12:54:27.451Z,29.95
2022-07-29T12:55:36.542Z,29.96
2022-07-29T12:56:43.171Z,29.94
2022-07-29T12:57:37.483Z,29.91
2022-07-29T12:58:37.302Z,29.89
2022-07-29T12:59:39.389Z,29.88
2022-07-29T13:00:38.544Z,29.90
2022-07-29T13:01:39.388Z,29.92
2022-07-29T13:02:39.783Z,29.94
2022-07-29T13:03:40.238Z,29.95
2022-07-29T13:04:41.685Z,29.96
2022-07-29T13:05:44.605Z,29.98
2022-07-29T13:06:41.592Z,30.01
2022-07-29T13:07:55.740Z,30.04
2022-07-29T13:08:43.343Z,30.07
2022-07-29T13:08:56.376Z,30.53
2022-07-29T13:09:58.216Z,30.51
2022-07-29T13:11:00.637Z,30.51
2022-07-29T13:11:58.080Z,30.51
2022-07-29T13:13:01.743Z,30.53
2022-07-29T13:14:06.584Z,30.55
2022-07-29T13:15:01.723Z,30.57
2022-07-29T13:15:59.949Z,30.60
2022-07-29T13:17:03.394Z,30.62
2022-07-29T13:18:01.292Z,30.65
2022-07-29T13:19:10.625Z,30.66
2022-07-29T13:20:02.135Z,30.69
2022-07-29T13:21:03.053Z,30.72
2022-07-29T13:22:03.287Z,30.75
2022-07-29T13:23:03.414Z,30.79
2022-07-29T13:24:06.624Z,30.84
2022-07-29T13:25:07.441Z,30.90
2022-07-29T13:26:05.637Z,30.95
2022-07-29T13:27:06.215Z,30.98
2022-07-29T13:28:06.536Z,30.98
2022-07-29T13:29:09.832Z,30.98
2022-07-29T13:30:07.542Z,30.95
2022-07-29T13:31:33.849Z,30.66
2022-07-29T13:32:41.945Z,30.64
2022-07-29T13:33:35.416Z,30.65
2022-07-29T13:34:35.536Z,30.65
2022-07-29T13:35:40.134Z,30.65
2022-07-29T13:36:39.996Z,30.66
2022-07-29T13:37:37.105Z,30.65
2022-07-29T13:38:38.717Z,30.66
2022-07-29T13:39:39.279Z,30.65
2022-07-29T13:40:39.905Z,30.65
2022-07-29T13:41:42.524Z,30.65
2022-07-29T13:42:39.836Z,30.63
2022-07-29T13:43:47.829Z,30.62
2022-07-29T13:44:43.405Z,30.59
2022-07-29T13:45:41.152Z,30.56
2022-07-29T13:46:41.480Z,30.55
2022-07-29T13:47:49.180Z,30.54
2022-07-29T13:48:43.225Z,30.53
2022-07-29T13:49:45.730Z,30.49
2022-07-29T13:50:43.597Z,30.44
2022-07-29T13:51:44.322Z,30.40
2022-07-29T13:52:45.187Z,30.37
2022-07-29T13:53:46.818Z,30.36
2022-07-29T13:54:48.475Z,30.32
2022-07-29T13:55:57.619Z,29.87
2022-07-29T13:56:58.044Z,29.83
2022-07-29T13:57:58.498Z,29.82
2022-07-29T13:58:59.282Z,29.83
2022-07-29T14:00:00.083Z,29.86
2022-07-29T14:01:01.547Z,29.89
2022-07-29T14:02:08.479Z,29.92
2022-07-29T14:03:01.710Z,29.95
2022-07-29T14:04:03.987Z,29.98
2022-07-29T14:05:08.056Z,29.99
2022-07-29T14:06:02.622Z,30.00
2022-07-29T14:07:03.543Z,30.01
2022-07-29T14:08:03.637Z,30.01
2022-07-29T14:09:04.135Z,30.00
2022-07-29T14:10:22.677Z,29.99
2022-07-29T14:11:12.976Z,29.98
2022-07-29T14:12:08.613Z,29.96
2022-07-29T14:13:06.816Z,29.95
2022-07-29T14:14:06.893Z,29.93
2022-07-29T14:15:08.456Z,29.91
2022-07-29T14:16:09.046Z,29.89
2022-07-29T14:17:08.704Z,29.87
2022-07-29T14:18:16.897Z,29.86
2022-07-29T14:19:09.525Z,29.86
2022-07-29T14:20:17.251Z,29.88
2022-07-29T14:21:13.456Z,29.91
2022-07-29T14:22:27.980Z,30.34
2022-07-29T14:23:28.071Z,30.33
2022-07-29T14:24:26.494Z,30.33
2022-07-29T14:25:26.793Z,30.33
2022-07-29T14:26:29.974Z,30.33
2022-07-29T14:27:37.893Z,30.33
2022-07-29T14:28:28.197Z,30.33
2022-07-29T14:29:35.266Z,30.32
2022-07-29T14:30:30.932Z,30.31
2022-07-29T14:31:29.102Z,30.31
2022-07-29T14:32:29.697Z,30.31
2022-07-29T14:33:38.134Z,30.29
2022-07-29T14:34:29.923Z,30.28
2022-07-29T14:35:30.956Z,30.25
2022-07-29T14:36:31.168Z,30.21
2022-07-29T14:37:39.368Z,30.17
2022-07-29T14:38:30.971Z,30.14
2022-07-29T14:39:32.211Z,30.10
2022-07-29T14:40:31.894Z,30.07
2022-07-29T14:41:32.674Z,30.03
2022-07-29T14:42:34.195Z,29.98
2022-07-29T14:43:34.386Z,29.94
2022-07-29T14:44:35.388Z,29.90
2022-07-29T14:44:47.059Z,29.18
2022-07-29T14:45:47.915Z,29.17
2022-07-29T14:46:51.151Z,29.16
2022-07-29T14:47:49.570Z,29.15
2022-07-29T14:48:49.940Z,29.14
2022-07-29T14:49:50.455Z,29.12
2022-07-29T14:50:53.313Z,29.10
2022-07-29T14:51:51.379Z,29.10
2022-07-29T14:52:51.577Z,29.10
2022-07-29T14:53:51.803Z,29.11
2022-07-29T14:54:52.551Z,29.12
2022-07-29T14:55:54.189Z,29.14
2022-07-29T14:56:53.762Z,29.17
2022-07-29T14:58:05.822Z,29.21
2022-07-29T14:59:56.974Z,29.24
2022-07-29T15:00:59.759Z,29.28
2022-07-29T15:01:57.719Z,29.31
2022-07-29T15:03:05.346Z,29.33
2022-07-29T15:03:59.922Z,29.36
2022-07-29T15:05:01.659Z,29.37
2022-07-29T15:05:59.658Z,29.37
2022-07-29T15:07:03.161Z,29.37
2022-07-29T15:08:02.897Z,29.36
2022-07-29T15:09:01.289Z,29.33
2022-07-29T15:10:02.745Z,29.31
2022-07-29T15:10:25.882Z,28.94
2022-07-29T15:11:28.940Z,28.91
2022-07-29T15:12:30.577Z,28.88
2022-07-29T15:13:27.978Z,28.85
2022-07-29T15:14:29.349Z,28.82
2022-07-29T15:15:29.698Z,28.79
2022-07-29T15:16:29.897Z,28.78
2022-07-29T15:17:29.354Z,28.77
2022-07-29T15:18:32.660Z,28.78
2022-07-29T15:19:29.757Z,28.79
2022-07-29T15:20:31.379Z,28.81
2022-07-29T15:21:31.548Z,28.83
2022-07-29T15:22:31.941Z,28.86
2022-07-29T15:23:31.211Z,28.88
2022-07-29T15:24:32.840Z,28.91
2022-07-29T15:25:31.864Z,28.95
2022-07-29T15:26:33.568Z,28.98
2022-07-29T15:27:32.599Z,29.00
2022-07-29T15:28:34.050Z,29.03
2022-07-29T15:29:34.503Z,29.05
2022-07-29T15:30:35.193Z,29.07
2022-07-29T15:31:34.447Z,29.08
2022-07-29T15:32:34.603Z,29.10
2022-07-29T15:33:35.589Z,29.13
2022-07-29T15:33:45.311Z,29.59
2022-07-29T15:34:46.134Z,29.58
2022-07-29T15:35:47.691Z,29.58
2022-07-29T15:36:52.945Z,29.58
2022-07-29T15:37:48.720Z,29.58
2022-07-29T15:38:47.672Z,29.58
2022-07-29T15:39:48.790Z,29.58
2022-07-29T15:40:48.915Z,29.56
2022-07-29T15:41:49.159Z,29.54
2022-07-29T15:42:49.092Z,29.52
2022-07-29T15:43:50.204Z,29.48
2022-07-29T15:44:50.699Z,29.45
2022-07-29T15:45:51.148Z,29.43
2022-07-29T15:46:50.210Z,29.39
2022-07-29T15:47:51.282Z,29.35
2022-07-29T15:48:52.404Z,29.31
2022-07-29T15:49:50.659Z,29.26
2022-07-29T15:50:51.632Z,29.23
2022-07-29T15:51:56.934Z,29.20
2022-07-29T15:52:52.736Z,29.18
2022-07-29T15:53:53.139Z,29.16
2022-07-29T15:54:52.748Z,29.13
2022-07-29T15:55:54.082Z,29.09
2022-07-29T15:56:02.703Z,28.56
2022-07-29T15:57:03.016Z,28.54
2022-07-29T15:58:04.388Z,28.54
2022-07-29T15:59:04.515Z,28.55
2022-07-29T16:00:05.220Z,28.55
2022-07-29T16:01:05.622Z,28.56
2022-07-29T16:02:05.079Z,28.56
2022-07-29T16:03:06.342Z,28.57
2022-07-29T16:04:06.408Z,28.57
2022-07-29T16:05:05.676Z,28.56
2022-07-29T16:06:05.973Z,28.55
2022-07-29T16:07:07.446Z,28.54
2022-07-29T16:08:08.254Z,28.53
2022-07-29T16:09:08.120Z,28.52
2022-07-29T16:10:10.066Z,28.51
2022-07-29T16:11:10.672Z,28.51
2022-07-29T16:12:15.416Z,28.51
2022-07-29T16:13:10.669Z,28.52
2022-07-29T16:14:11.649Z,28.52
2022-07-29T16:15:13.393Z,28.53
2022-07-29T16:16:12.584Z,28.55
2022-07-29T16:17:14.794Z,28.57
2022-07-29T16:17:23.148Z,28.86
2022-07-29T16:18:30.174Z,28.85
2022-07-29T16:19:24.233Z,28.85
2022-07-29T16:20:25.273Z,28.85
2022-07-29T16:21:25.551Z,28.85
2022-07-29T16:22:25.968Z,28.85
2022-07-29T16:23:26.658Z,28.85
2022-07-29T16:24:25.765Z,28.84
2022-07-29T16:25:50.306Z,28.84
2022-07-29T16:26:26.052Z,28.84
2022-07-29T16:27:31.470Z,28.82
2022-07-29T16:28:27.492Z,28.78
2022-07-29T16:29:28.963Z,28.76
2022-07-29T16:30:29.383Z,28.74
2022-07-29T16:31:30.182Z,28.72
2022-07-29T16:32:29.212Z,28.72
2022-07-29T16:33:53.645Z,28.72
2022-07-29T16:34:30.300Z,28.69
2022-07-29T16:35:39.854Z,28.68
2022-07-29T16:36:31.388Z,28.66
2022-07-29T16:37:31.477Z,28.63
2022-07-29T16:38:33.060Z,28.62
2022-07-29T16:39:33.787Z,28.61
2022-07-29T16:39:42.393Z,28.29
2022-07-29T16:40:43.440Z,28.26
2022-07-29T16:41:43.855Z,28.25
2022-07-29T16:42:47.040Z,28.25
2022-07-29T16:43:43.268Z,28.25
2022-07-29T16:44:45.192Z,28.26
2022-07-29T16:45:46.414Z,28.25
2022-07-29T16:46:44.827Z,28.24
2022-07-29T16:47:44.857Z,28.24
2022-07-29T16:48:46.269Z,28.24
2022-07-29T16:49:45.637Z,28.23
2022-07-29T16:50:45.760Z,28.22
2022-07-29T16:51:47.553Z,28.21
2022-07-29T16:52:48.025Z,28.20
2022-07-29T16:53:48.938Z,28.20
2022-07-29T16:54:48.175Z,28.17
2022-07-29T16:55:48.304Z,28.15
2022-07-29T16:56:49.944Z,28.12
2022-07-29T16:57:50.118Z,28.08
2022-07-29T16:58:50.650Z,28.05
2022-07-29T16:59:50.865Z,28.03
2022-07-29T17:00:50.822Z,28.01
2022-07-29T17:01:04.268Z,27.77
2022-07-29T17:02:04.862Z,27.74
2022-07-29T17:03:05.742Z,27.73
2022-07-29T17:04:06.835Z,27.73
2022-07-29T17:05:07.808Z,27.74
2022-07-29T17:06:06.655Z,27.73
2022-07-29T17:07:08.858Z,27.73
2022-07-29T17:08:08.228Z,27.72
2022-07-29T17:09:09.157Z,27.71
2022-07-29T17:10:10.658Z,27.69
2022-07-29T17:11:10.869Z,27.67
2022-07-29T17:12:14.071Z,27.64
2022-07-29T17:13:11.358Z,27.62
2022-07-29T17:14:11.437Z,27.60
2022-07-29T17:15:11.693Z,27.58
2022-07-29T17:16:11.222Z,27.56
2022-07-29T17:17:13.581Z,27.54
2022-07-29T17:18:13.084Z,27.50
2022-07-29T17:19:13.165Z,27.47
2022-07-29T17:20:14.587Z,27.43
2022-07-29T17:21:14.642Z,27.40
2022-07-29T17:22:19.257Z,27.36
2022-07-29T17:23:15.215Z,27.33
2022-07-29T17:23:23.939Z,26.62
2022-07-29T17:24:25.092Z,26.59
2022-07-29T17:25:25.616Z,26.58
2022-07-29T17:26:24.787Z,26.57
2022-07-29T17:27:26.448Z,26.54
2022-07-29T17:28:26.880Z,26.50
2022-07-29T17:29:27.133Z,26.45
2022-07-29T17:30:27.177Z,26.40
2022-07-29T17:31:26.618Z,26.35
2022-07-29T17:32:26.953Z,26.30
2022-07-29T17:33:28.812Z,26.25
2022-07-29T17:34:28.815Z,26.21
2022-07-29T17:35:29.450Z,26.16
2022-07-29T17:36:33.480Z,26.12
2022-07-29T17:37:29.862Z,26.07
2022-07-29T17:38:31.691Z,26.03
2022-07-29T17:40:01.486Z,25.46
2022-07-29T17:41:01.704Z,25.45
2022-07-29T17:42:02.430Z,25.45
2022-07-29T17:43:04.368Z,25.44
2022-07-29T17:44:04.688Z,25.43
2022-07-29T17:45:04.709Z,25.41
2022-07-29T17:46:04.977Z,25.37
2022-07-29T17:47:05.085Z,25.35
2022-07-29T17:48:04.762Z,25.32
2022-07-29T17:49:06.488Z,25.29
2022-07-29T17:50:05.831Z,25.26
2022-07-29T17:51:06.077Z,25.23
2022-07-29T17:52:07.379Z,25.21
2022-07-29T17:53:15.573Z,25.19
2022-07-29T17:54:07.727Z,25.17
2022-07-29T17:55:08.990Z,25.15
2022-07-29T17:56:09.391Z,25.13
2022-07-29T17:57:09.373Z,25.11
2022-07-29T17:58:09.670Z,25.10
2022-07-29T17:59:11.586Z,25.09
2022-07-29T18:00:12.273Z,25.08
2022-07-29T18:00:21.913Z,24.92
2022-07-29T18:01:23.162Z,24.89
2022-07-29T18:02:22.830Z,24.88
2022-07-29T18:03:23.629Z,24.88
2022-07-29T18:04:23.960Z,24.87
2022-07-29T18:05:25.218Z,24.87
2022-07-29T18:06:25.358Z,24.86
2022-07-29T18:07:25.047Z,24.85
2022-07-29T18:08:26.097Z,24.84
2022-07-29T18:09:26.449Z,24.83
2022-07-29T18:10:26.438Z,24.81
2022-07-29T18:11:27.171Z,24.80
2022-07-29T18:12:26.486Z,24.79
2022-07-29T18:13:26.944Z,24.77
2022-07-29T18:14:29.564Z,24.76
2022-07-29T18:15:27.762Z,24.75
2022-07-29T18:16:28.072Z,24.73
2022-07-29T18:17:50.482Z,24.71
2022-07-29T18:18:31.919Z,24.70
2022-07-29T18:19:29.792Z,24.68
2022-07-29T18:20:30.673Z,24.67
2022-07-29T18:21:43.615Z,24.65
2022-07-29T18:22:33.815Z,24.64
2022-07-29T18:23:31.622Z,24.63
2022-07-29T18:24:42.668Z,24.33
2022-07-29T18:25:43.179Z,24.30
2022-07-29T18:26:43.633Z,24.30
2022-07-29T18:27:44.102Z,24.30
2022-07-29T18:28:44.666Z,24.29
2022-07-29T18:29:45.867Z,24.29
2022-07-29T18:30:45.698Z,24.28
2022-07-29T18:31:46.328Z,24.28
2022-07-29T18:33:04.981Z,24.27
2022-07-29T18:33:50.094Z,24.27
2022-07-29T18:34:49.468Z,24.26
2022-07-29T18:36:10.065Z,24.26
2022-07-29T18:36:53.598Z,24.26
2022-07-29T18:38:01.419Z,24.25
2022-07-29T18:38:50.279Z,24.25
2022-07-29T18:39:51.859Z,24.25
2022-07-29T18:40:50.840Z,24.24
2022-07-29T18:41:59.328Z,24.23
2022-07-29T18:42:51.431Z,24.23
2022-07-29T18:43:58.966Z,24.22
2022-07-29T18:44:51.492Z,24.22
2022-07-29T18:45:54.903Z,24.21
2022-07-29T18:47:01.440Z,24.20
2022-07-29T18:47:53.553Z,24.19
2022-07-29T18:49:32.190Z,24.08
2022-07-29T18:50:28.580Z,24.06
2022-07-29T18:51:27.360Z,24.06
2022-07-29T18:52:43.252Z,24.06
2022-07-29T18:53:27.533Z,24.06
2022-07-29T18:54:33.164Z,24.06
2022-07-29T18:55:26.286Z,24.06
2022-07-29T18:56:26.285Z,24.06
2022-07-29T18:57:55.643Z,24.05
2022-07-29T18:58:27.562Z,24.05
2022-07-29T18:59:28.017Z,24.05
2022-07-29T19:00:30.773Z,24.04
2022-07-29T19:01:33.541Z,24.04
2022-07-29T19:02:29.693Z,24.04
2022-07-29T19:03:29.525Z,24.03
2022-07-29T19:04:30.056Z,24.02
2022-07-29T19:05:30.014Z,24.02
2022-07-29T19:06:31.714Z,24.01
2022-07-29T19:07:33.387Z,24.00
2022-07-29T19:08:33.894Z,24.00
2022-07-29T19:09:36.974Z,23.99
2022-07-29T19:11:07.694Z,23.89
2022-07-29T19:12:01.955Z,23.86
2022-07-29T19:13:56.971Z,23.85
2022-07-29T19:14:06.770Z,23.85
2022-07-29T19:15:06.737Z,23.85
2022-07-29T19:16:12.060Z,23.85
2022-07-29T19:17:03.458Z,23.84
2022-07-29T19:18:59.558Z,23.84
2022-07-29T19:19:02.477Z,23.83
2022-07-29T19:20:02.706Z,23.83
2022-07-29T19:21:04.325Z,23.82
2022-07-29T19:22:03.814Z,23.81
2022-07-29T19:23:06.341Z,23.80
2022-07-29T19:24:07.766Z,23.80
2022-07-29T19:25:04.958Z,23.79
2022-07-29T19:26:07.837Z,23.78
2022-07-29T19:27:06.008Z,23.77
2022-07-29T19:28:08.620Z,23.76
2022-07-29T19:29:06.915Z,23.75
2022-07-29T19:30:07.808Z,23.74
2022-07-29T19:31:11.028Z,23.73
2022-07-29T19:32:24.434Z,23.72
2022-07-29T19:33:11.156Z,23.72
2022-07-29T19:34:11.070Z,23.71
2022-07-29T19:34:19.012Z,23.57
2022-07-29T19:35:19.994Z,23.55
2022-07-29T19:36:21.596Z,23.55
2022-07-29T19:37:21.192Z,23.55
2022-07-29T19:38:21.723Z,23.55
2022-07-29T19:39:34.851Z,23.55
2022-07-29T19:40:29.853Z,23.54
2022-07-29T19:41:22.380Z,23.54
2022-07-29T19:42:22.642Z,23.53
2022-07-29T19:43:50.864Z,23.52
2022-07-29T19:44:26.076Z,23.51
2022-07-29T19:45:24.662Z,23.51
2022-07-29T19:46:24.852Z,23.50
2022-07-29T19:47:25.389Z,23.49
2022-07-29T19:48:26.207Z,23.48
2022-07-29T19:49:34.399Z,23.47
2022-07-29T19:50:27.620Z,23.45
2022-07-29T19:51:28.238Z,23.44
2022-07-29T19:52:28.240Z,23.43
2022-07-29T19:53:29.119Z,23.42
2022-07-29T19:54:29.904Z,23.40
2022-07-29T19:55:37.900Z,23.38
2022-07-29T19:56:31.146Z,23.36
2022-07-29T19:57:35.985Z,23.33
2022-07-29T19:58:34.195Z,23.30
2022-07-29T19:59:32.753Z,23.27
2022-07-29T20:00:34.784Z,23.23
2022-07-29T20:01:34.634Z,23.19
2022-07-29T20:02:35.255Z,23.17
2022-07-29T20:03:35.699Z,23.14
2022-07-29T20:04:35.688Z,23.12
2022-07-29T20:05:36.386Z,23.09
2022-07-29T20:05:47.796Z,22.81
2022-07-29T20:06:48.735Z,22.79
2022-07-29T20:07:48.606Z,22.79
2022-07-29T20:08:47.588Z,22.79
2022-07-29T20:11:04.495Z,22.86
2022-07-29T20:12:04.103Z,22.84
2022-07-29T20:13:13.014Z,22.84
2022-07-29T20:14:01.902Z,22.84
2022-07-29T20:15:02.231Z,22.84
2022-07-29T20:16:02.721Z,22.85
2022-07-29T20:18:03.015Z,22.85
2022-07-29T20:18:43.977Z,22.85
2022-07-29T20:19:03.408Z,22.84
2022-07-29T20:20:04.028Z,22.84
2022-07-29T20:21:05.004Z,22.84
2022-07-29T20:22:07.467Z,22.83
2022-07-29T20:23:05.498Z,22.83
2022-07-29T20:24:10.608Z,22.83
2022-07-29T20:25:06.720Z,22.83
2022-07-29T20:26:09.446Z,22.76
2022-07-29T20:27:13.357Z,22.74
2022-07-29T20:28:05.067Z,22.73
2022-07-29T20:29:05.885Z,22.73
2022-07-29T20:30:10.246Z,22.73
2022-07-29T20:31:10.106Z,22.72
2022-07-29T20:32:07.623Z,22.72
2022-07-29T20:35:32.265Z,22.72
2022-07-29T20:36:25.413Z,22.72
2022-07-29T20:37:52.450Z,22.71
2022-07-29T20:38:35.373Z,22.71
2022-07-29T20:40:15.841Z,22.64
2022-07-29T20:41:13.421Z,22.62
2022-07-29T20:42:21.411Z,22.62
2022-07-29T20:43:14.887Z,22.62
2022-07-29T20:44:17.901Z,22.61
2022-07-29T20:45:16.060Z,22.60
2022-07-29T20:46:17.018Z,22.60
2022-07-29T20:47:30.879Z,22.60
2022-07-29T20:48:25.371Z,22.59
2022-07-29T20:49:18.772Z,22.58
2022-07-29T20:50:20.877Z,22.57
2022-07-29T20:51:19.306Z,22.56
2022-07-29T20:52:20.254Z,22.54
2022-07-29T20:53:23.917Z,22.53
2022-07-29T20:54:26.282Z,22.52
2022-07-29T20:54:46.306Z,22.30
2022-07-29T20:55:41.226Z,22.27
2022-07-29T20:56:40.173Z,22.27
2022-07-29T20:57:44.008Z,22.27
2022-07-29T20:58:41.091Z,22.25
2022-07-29T21:00:42.408Z,22.21
2022-07-29T21:00:59.309Z,22.23
2022-07-29T21:01:49.385Z,22.20
2022-07-29T21:02:43.142Z,22.18
2022-07-29T21:03:43.805Z,22.15
2022-07-29T21:04:48.851Z,22.12
2022-07-29T21:05:47.815Z,22.09
2022-07-29T21:07:19.548Z,21.67
2022-07-29T21:07:20.044Z,21.68
2022-07-29T21:08:11.456Z,21.67
2022-07-29T21:09:12.245Z,21.67
2022-07-29T21:10:12.891Z,21.67
2022-07-29T21:11:13.757Z,21.67
2022-07-29T21:12:14.045Z,21.67
2022-07-29T21:13:40.261Z,21.65
2022-07-29T21:14:14.797Z,21.64
2022-07-29T21:15:15.682Z,21.62
2022-07-29T21:16:16.626Z,21.61
2022-07-29T21:17:21.268Z,21.60
2022-07-29T21:18:16.728Z,21.59
2022-07-29T21:19:19.315Z,21.57
2022-07-29T21:20:18.071Z,21.56
2022-07-29T21:21:18.919Z,21.55
2022-07-29T21:22:19.836Z,21.52
2022-07-29T21:23:20.392Z,21.50
2022-07-29T21:24:20.589Z,21.48
2022-07-29T21:24:49.850Z,21.20
2022-07-29T21:25:55.506Z,21.17
2022-07-29T21:27:10.978Z,21.17
2022-07-29T21:27:50.502Z,21.17
2022-07-29T21:28:50.326Z,21.17
2022-07-29T21:29:50.574Z,21.16
2022-07-29T21:30:53.811Z,21.16
2022-07-29T21:31:52.223Z,21.16
2022-07-29T21:32:53.412Z,21.16
2022-07-29T21:33:56.331Z,21.16
2022-07-29T21:35:02.400Z,21.15
2022-07-29T21:36:55.114Z,21.15
2022-07-29T21:37:56.130Z,21.15
2022-07-29T21:38:56.234Z,21.15
2022-07-29T21:39:58.686Z,21.16
2022-07-29T21:40:59.207Z,21.16
2022-07-29T21:42:13.553Z,21.19
2022-07-29T21:43:13.382Z,21.18
2022-07-29T21:44:15.232Z,21.18
2022-07-29T21:45:14.451Z,21.18
2022-07-29T21:46:15.549Z,21.18
2022-07-29T21:47:14.746Z,21.17
2022-07-29T21:48:15.843Z,21.17
2022-07-29T21:49:16.237Z,21.16
2022-07-29T21:50:15.765Z,21.16
2022-07-29T21:51:16.848Z,21.15
2022-07-29T21:52:18.219Z,21.15
2022-07-29T21:53:16.762Z,21.15
2022-07-29T21:54:17.108Z,21.14
2022-07-29T21:55:17.412Z,21.13
2022-07-29T21:56:18.345Z,21.12
2022-07-29T21:57:19.889Z,21.11